RKSY/SSN METAR and TAF weather

Enter ICAO airport designator
Station Type Date Time Source
RKSY METAR 2019/08/16 01:16 UTC NOAA

RKSY 160116Z AUTO 00000KT 9999 BKN017 OVC024 27/24 A2934 RMK AO2 RAB01E16 SLP938 $


Station Type Date Time Source
RKSY Decoded METAR 2019/08/16 01:16 UTC NOAA

Yongsan / H-208 Hp, Korea, South (RKSY) 37-31N 126-59E
Aug 15, 2019 - 09:16 PM EDT / 2019.08.16 0116 UTC
Wind: Calm:0
Visibility: greater than 7 mile(s):0
Sky conditions: overcast
Temperature: 80 F (27 C)
Dew Point: 75 F (24 C)
Relative Humidity: 83%
Pressure (altimeter): 29.34 in. Hg (993 hPa)
ob: RKSY 160116Z AUTO 00000KT 9999 BKN017 OVC024 27/24 A2934 RMK AO2 RAB01E16 SLP938
cycle: 1

Station Type Date Time Source
RKSY TAF UTC NOAA

Error!

Example: see airport list